createdAt,value
2023-01-17T00:00:32.957Z,0.40
2023-01-17T00:02:59.876Z,2.50
2023-01-17T00:05:45.348Z,0.50
2023-01-17T00:08:31.457Z,0.47
2023-01-17T00:10:58.791Z,2.00
2023-01-17T00:13:25.467Z,1.42
2023-01-17T00:15:53.170Z,0.93
2023-01-17T00:18:19.836Z,1.27
2023-01-17T00:21:05.094Z,1.38
2023-01-17T00:23:50.527Z,0.90
2023-01-17T00:26:18.627Z,2.03
2023-01-17T00:28:47.119Z,0.98
2023-01-17T00:31:14.742Z,1.27
2023-01-17T00:33:41.394Z,0.98
2023-01-17T00:36:08.864Z,0.90
2023-01-17T00:38:37.166Z,0.68
2023-01-17T00:41:03.910Z,1.48
2023-01-17T00:43:52.050Z,1.17
2023-01-17T00:46:37.625Z,1.52
2023-01-17T00:49:23.061Z,0.80
2023-01-17T00:52:08.267Z,2.42
2023-01-17T00:54:53.623Z,0.35
2023-01-17T00:57:39.159Z,0.75
2023-01-17T01:00:24.952Z,2.22
2023-01-17T01:03:10.335Z,1.30
2023-01-17T01:05:56.302Z,1.38
2023-01-17T01:08:41.703Z,0.40
2023-01-17T01:11:28.335Z,0.70
2023-01-17T01:14:14.607Z,1.45
2023-01-17T01:16:59.993Z,0.68
2023-01-17T01:19:45.368Z,1.30
2023-01-17T01:22:30.667Z,2.03
2023-01-17T01:25:16.320Z,0.93
2023-01-17T01:28:01.585Z,1.55
2023-01-17T01:30:47.193Z,1.15
2023-01-17T01:33:20.752Z,0.95
2023-01-17T01:35:49.449Z,0.85
2023-01-17T01:38:16.805Z,0.70
2023-01-17T01:40:51.735Z,0.65
2023-01-17T01:43:20.392Z,0.80
2023-01-17T01:45:54.788Z,0.50
2023-01-17T01:48:21.424Z,0.50
2023-01-17T01:50:48.675Z,1.50
2023-01-17T01:53:15.976Z,1.15
2023-01-17T01:55:43.281Z,0.82
2023-01-17T01:58:13.589Z,1.10
2023-01-17T02:00:41.083Z,1.95
2023-01-17T02:03:13.939Z,0.90
2023-01-17T02:05:43.763Z,0.80
2023-01-17T02:08:11.990Z,2.72
2023-01-17T02:10:40.071Z,1.02
2023-01-17T02:13:07.593Z,0.55
2023-01-17T02:15:43.492Z,2.88
2023-01-17T02:18:13.080Z,2.05
2023-01-17T02:20:58.668Z,2.90
2023-01-17T02:23:45.132Z,0.95
2023-01-17T02:26:30.552Z,0.82
2023-01-17T02:29:19.044Z,1.35
2023-01-17T02:31:51.658Z,1.35
2023-01-17T02:34:30.859Z,1.75
2023-01-17T02:37:00.532Z,1.15
2023-01-17T02:39:37.933Z,1.05
2023-01-17T02:42:12.768Z,1.63
2023-01-17T02:44:43.099Z,3.35
2023-01-17T02:47:26.500Z,1.30
2023-01-17T02:50:13.369Z,0.75
2023-01-17T02:52:58.686Z,1.13
2023-01-17T02:55:34.470Z,2.78
2023-01-17T02:58:03.898Z,0.82
2023-01-17T03:00:42.369Z,1.35
2023-01-17T03:03:25.688Z,0.68
2023-01-17T03:05:55.100Z,1.02
2023-01-17T03:08:22.472Z,0.60
2023-01-17T03:10:49.371Z,1.15
2023-01-17T03:13:16.077Z,1.27
2023-01-17T03:15:43.132Z,1.98
2023-01-17T03:18:12.054Z,1.20
2023-01-17T03:20:38.835Z,1.40
2023-01-17T03:23:07.802Z,1.67
2023-01-17T03:25:34.851Z,0.90
2023-01-17T03:28:01.538Z,0.90
2023-01-17T03:30:28.124Z,1.60
2023-01-17T03:32:54.837Z,2.80
2023-01-17T03:35:21.827Z,0.70
2023-01-17T03:37:48.410Z,1.08
2023-01-17T03:40:15.179Z,1.23
2023-01-17T03:42:42.760Z,1.73
2023-01-17T03:45:09.595Z,0.93
2023-01-17T03:47:36.463Z,1.60
2023-01-17T03:50:03.671Z,3.65
2023-01-17T03:52:30.415Z,1.98
2023-01-17T03:54:57.241Z,1.08
2023-01-17T03:57:24.000Z,0.80
2023-01-17T03:59:50.881Z,2.50
2023-01-17T04:02:17.935Z,0.65
2023-01-17T04:04:44.572Z,0.95
2023-01-17T04:07:11.281Z,5.50
2023-01-17T04:09:38.234Z,1.17
2023-01-17T04:12:04.860Z,2.88
2023-01-17T04:14:31.535Z,1.85
2023-01-17T04:17:01.591Z,1.65
2023-01-17T04:19:28.493Z,1.95
2023-01-17T04:21:55.167Z,2.58
2023-01-17T04:24:21.882Z,1.95
2023-01-17T04:26:48.511Z,1.17
2023-01-17T04:29:15.489Z,3.20
2023-01-17T04:31:42.470Z,2.55
2023-01-17T04:34:09.183Z,1.83
2023-01-17T04:36:35.827Z,1.77
2023-01-17T04:39:02.677Z,1.92
2023-01-17T04:41:29.337Z,1.25
2023-01-17T04:43:55.985Z,0.82
2023-01-17T04:46:22.767Z,1.02
2023-01-17T04:48:49.911Z,1.45
2023-01-17T04:51:16.729Z,0.70
2023-01-17T04:53:43.479Z,3.95
2023-01-17T04:56:10.141Z,1.80
2023-01-17T04:58:36.786Z,2.35
2023-01-17T05:01:08.083Z,1.13
2023-01-17T05:03:34.880Z,1.17
2023-01-17T05:06:01.576Z,2.50
2023-01-17T05:08:28.191Z,1.48
2023-01-17T05:10:54.799Z,2.05
2023-01-17T05:13:21.466Z,2.35
2023-01-17T05:15:48.234Z,1.25
2023-01-17T05:18:15.784Z,5.72
2023-01-17T05:20:42.498Z,3.75
2023-01-17T05:23:09.870Z,1.35
2023-01-17T05:25:36.698Z,2.53
2023-01-17T05:28:03.648Z,0.68
2023-01-17T05:30:31.382Z,1.58
2023-01-17T05:32:58.658Z,2.85
2023-01-17T05:35:26.967Z,1.35
2023-01-17T05:37:53.667Z,0.80
2023-01-17T05:40:21.844Z,0.60
2023-01-17T05:42:49.763Z,2.72
2023-01-17T05:45:17.161Z,1.20
2023-01-17T05:47:44.365Z,2.13
2023-01-17T05:50:12.015Z,1.65
2023-01-17T05:52:38.690Z,1.63
2023-01-17T05:55:07.387Z,1.30
2023-01-17T05:57:34.680Z,1.10
2023-01-17T06:00:01.397Z,2.42
2023-01-17T06:02:28.397Z,1.13
2023-01-17T06:04:55.174Z,2.80
2023-01-17T06:07:21.891Z,1.48
2023-01-17T06:09:48.638Z,1.17
2023-01-17T06:12:15.332Z,2.55
2023-01-17T06:14:41.983Z,5.35
2023-01-17T06:17:08.852Z,5.18
2023-01-17T06:19:35.698Z,3.78
2023-01-17T06:22:03.714Z,4.05
2023-01-17T06:24:30.824Z,2.10
2023-01-17T06:26:57.735Z,2.03
2023-01-17T06:29:24.428Z,1.75
2023-01-17T06:31:51.078Z,2.22
2023-01-17T06:34:17.691Z,2.38
2023-01-17T06:36:44.322Z,1.85
2023-01-17T06:39:12.881Z,1.90
2023-01-17T06:41:41.536Z,0.80
2023-01-17T06:44:08.903Z,3.00
2023-01-17T06:46:35.577Z,3.35
2023-01-17T06:49:02.281Z,1.77
2023-01-17T06:51:29.004Z,1.90
2023-01-17T06:53:55.683Z,1.60
2023-01-17T06:56:22.379Z,3.95
2023-01-17T06:58:50.240Z,2.22
2023-01-17T07:01:17.990Z,1.58
2023-01-17T07:03:44.913Z,2.05
2023-01-17T07:06:11.644Z,1.80
2023-01-17T07:08:38.321Z,2.63
2023-01-17T07:11:06.038Z,2.40
2023-01-17T07:13:36.628Z,2.25
2023-01-17T07:16:04.145Z,3.13
2023-01-17T07:18:31.640Z,2.47
2023-01-17T07:20:58.322Z,4.80
2023-01-17T07:23:25.549Z,1.70
2023-01-17T07:25:53.066Z,5.38
2023-01-17T07:28:19.814Z,2.75
2023-01-17T07:30:46.463Z,4.55
2023-01-17T07:33:13.106Z,5.40
2023-01-17T07:35:39.759Z,1.27
2023-01-17T07:38:11.347Z,2.67
2023-01-17T07:40:42.008Z,1.10
2023-01-17T07:43:15.379Z,7.95
2023-01-17T07:45:45.774Z,2.25
2023-01-17T07:48:12.807Z,2.38
2023-01-17T07:50:39.762Z,3.08
2023-01-17T07:53:06.442Z,4.00
2023-01-17T07:55:33.239Z,1.30
2023-01-17T07:58:02.283Z,2.53
2023-01-17T08:00:29.509Z,2.53
2023-01-17T08:02:59.451Z,3.70
2023-01-17T08:05:26.199Z,3.33
2023-01-17T08:07:53.112Z,3.55
2023-01-17T08:10:20.058Z,3.55
2023-01-17T08:12:47.498Z,2.13
2023-01-17T08:15:14.871Z,1.35
2023-01-17T08:17:48.755Z,3.53
2023-01-17T08:20:16.373Z,5.25
2023-01-17T08:22:42.973Z,3.00
2023-01-17T08:25:09.917Z,2.72
2023-01-17T08:27:36.747Z,3.10
2023-01-17T08:30:03.772Z,2.85
2023-01-17T08:32:30.447Z,3.25
2023-01-17T08:34:57.312Z,3.45
2023-01-17T08:37:24.196Z,6.15
2023-01-17T08:39:50.973Z,2.15
2023-01-17T08:42:17.742Z,3.55
2023-01-17T08:44:44.339Z,4.15
2023-01-17T08:47:11.079Z,3.00
2023-01-17T08:49:37.855Z,2.83
2023-01-17T08:52:05.339Z,6.35
2023-01-17T08:54:31.991Z,3.88
2023-01-17T08:56:58.760Z,3.70
2023-01-17T08:59:25.400Z,3.03
2023-01-17T09:01:52.615Z,6.57
2023-01-17T09:04:19.487Z,3.45
2023-01-17T09:06:49.331Z,6.05
2023-01-17T09:09:17.054Z,3.33
2023-01-17T09:11:43.707Z,4.20
2023-01-17T09:14:11.929Z,3.40
2023-01-17T09:16:38.764Z,3.08
2023-01-17T09:19:05.471Z,2.78
2023-01-17T09:21:32.175Z,3.83
2023-01-17T09:23:58.848Z,3.85
2023-01-17T09:26:29.712Z,5.10
2023-01-17T09:28:56.870Z,3.47
2023-01-17T09:31:24.208Z,4.97
2023-01-17T09:33:51.684Z,4.63
2023-01-17T09:36:19.627Z,3.50
2023-01-17T09:38:46.598Z,3.03
2023-01-17T09:41:19.795Z,2.92
2023-01-17T09:44:04.987Z,5.80
2023-01-17T09:46:33.344Z,2.85
2023-01-17T09:49:13.033Z,4.80
2023-01-17T09:51:39.814Z,2.58
2023-01-17T09:54:12.861Z,3.33
2023-01-17T09:56:44.823Z,5.78
2023-01-17T09:59:18.898Z,4.10
2023-01-17T10:02:04.726Z,4.03
2023-01-17T10:04:51.392Z,3.83
2023-01-17T10:07:18.638Z,6.13
2023-01-17T10:10:03.977Z,3.78
2023-01-17T10:12:39.650Z,5.38
2023-01-17T10:15:25.225Z,4.28
2023-01-17T10:17:57.503Z,3.72
2023-01-17T10:20:43.098Z,7.38
2023-01-17T10:23:28.680Z,2.83
2023-01-17T10:25:57.722Z,6.53
2023-01-17T10:28:24.426Z,2.15
2023-01-17T10:30:59.615Z,3.20
2023-01-17T10:33:31.248Z,3.53
2023-01-17T10:35:59.568Z,2.70
2023-01-17T10:38:31.797Z,2.00
2023-01-17T10:41:10.670Z,2.35
2023-01-17T10:43:44.442Z,6.22
2023-01-17T10:46:20.163Z,1.73
2023-01-17T10:48:47.693Z,3.30
2023-01-17T10:51:23.688Z,4.00
2023-01-17T10:54:02.471Z,1.65
2023-01-17T10:56:29.831Z,2.55
2023-01-17T10:59:17.937Z,4.30
2023-01-17T11:01:44.806Z,3.53
2023-01-17T11:04:16.379Z,3.22
2023-01-17T11:06:57.895Z,1.70
2023-01-17T11:09:37.407Z,3.67
2023-01-17T11:12:04.261Z,2.15
2023-01-17T11:14:31.280Z,1.88
2023-01-17T11:17:06.117Z,3.90
2023-01-17T11:19:35.996Z,3.58
2023-01-17T11:22:04.964Z,2.03
2023-01-17T11:24:34.724Z,3.10
2023-01-17T11:27:02.427Z,2.92
2023-01-17T11:29:35.835Z,4.95
2023-01-17T11:32:21.358Z,2.60
2023-01-17T11:35:07.137Z,2.45
2023-01-17T11:37:34.859Z,2.08
2023-01-17T11:40:09.338Z,2.35
2023-01-17T11:42:37.301Z,2.08
2023-01-17T11:45:33.217Z,2.10
2023-01-17T11:48:09.054Z,4.00
2023-01-17T11:50:37.623Z,1.83
2023-01-17T11:53:23.088Z,3.35
2023-01-17T11:55:55.625Z,4.30
2023-01-17T11:58:24.117Z,4.47
2023-01-17T12:01:17.275Z,4.40
2023-01-17T12:03:54.548Z,3.03
2023-01-17T12:06:56.567Z,2.95
2023-01-17T12:09:31.377Z,2.33
2023-01-17T12:12:35.731Z,3.67
2023-01-17T12:15:21.197Z,2.90
2023-01-17T12:18:06.528Z,4.28
2023-01-17T12:20:33.149Z,2.00
2023-01-17T12:23:17.967Z,2.47
2023-01-17T12:26:03.150Z,3.55
2023-01-17T12:28:46.186Z,5.88
2023-01-17T12:31:15.658Z,3.65
2023-01-17T12:33:50.965Z,2.10
2023-01-17T12:36:33.087Z,2.70
2023-01-17T12:39:03.148Z,1.95
2023-01-17T12:41:35.723Z,2.33
2023-01-17T12:44:02.595Z,2.13
2023-01-17T12:46:29.246Z,3.75
2023-01-17T12:49:19.011Z,1.50
2023-01-17T12:51:47.468Z,1.55
2023-01-17T12:54:26.942Z,2.42
2023-01-17T12:57:03.833Z,2.50
2023-01-17T12:59:48.113Z,2.75
2023-01-17T13:02:31.227Z,2.22
2023-01-17T13:05:03.209Z,3.00
2023-01-17T13:07:36.239Z,4.25
2023-01-17T13:10:11.768Z,2.78
2023-01-17T13:12:38.772Z,2.53
2023-01-17T13:15:17.450Z,3.03
2023-01-17T13:17:51.447Z,1.33
2023-01-17T13:20:31.887Z,2.70
2023-01-17T13:23:03.687Z,4.03
2023-01-17T13:25:44.557Z,2.42
2023-01-17T13:28:16.855Z,2.33
2023-01-17T13:31:02.251Z,2.80
2023-01-17T13:33:58.222Z,2.55
2023-01-17T13:36:30.745Z,2.35
2023-01-17T13:39:05.620Z,2.90
2023-01-17T13:41:47.697Z,1.45
2023-01-17T13:44:27.219Z,1.90
2023-01-17T13:46:55.170Z,2.53
2023-01-17T13:49:34.268Z,1.10
2023-01-17T13:52:00.990Z,1.05
2023-01-17T13:54:33.983Z,1.23
2023-01-17T13:57:32.730Z,1.95
2023-01-17T14:00:00.548Z,3.15
2023-01-17T14:02:33.433Z,3.63
2023-01-17T14:05:16.376Z,2.88
2023-01-17T14:07:52.252Z,3.63
2023-01-17T14:10:31.286Z,2.80
2023-01-17T14:12:58.987Z,1.80
2023-01-17T14:15:30.029Z,3.25
2023-01-17T14:18:01.166Z,2.72
2023-01-17T14:20:32.364Z,1.80
2023-01-17T14:23:00.575Z,2.00
2023-01-17T14:25:37.697Z,5.70
2023-01-17T14:28:08.212Z,4.15
2023-01-17T14:30:36.852Z,2.50
2023-01-17T14:33:08.724Z,1.83
2023-01-17T14:35:39.795Z,4.70
2023-01-17T14:38:16.406Z,3.22
2023-01-17T14:40:49.389Z,2.38
2023-01-17T14:43:18.590Z,3.70
2023-01-17T14:45:45.292Z,2.10
2023-01-17T14:48:19.720Z,1.20
2023-01-17T14:50:48.049Z,2.22
2023-01-17T14:53:15.653Z,2.63
2023-01-17T14:55:48.681Z,2.75
2023-01-17T14:58:18.493Z,1.88
2023-01-17T15:00:45.739Z,1.15
2023-01-17T15:03:12.860Z,1.85
2023-01-17T15:05:44.479Z,1.10
2023-01-17T15:08:13.683Z,1.40
2023-01-17T15:10:51.632Z,1.23
2023-01-17T15:13:26.018Z,1.63
2023-01-17T15:16:03.757Z,0.98
2023-01-17T15:18:34.002Z,2.47
2023-01-17T15:21:02.230Z,2.85
2023-01-17T15:23:48.330Z,2.35
2023-01-17T15:26:16.146Z,2.42
2023-01-17T15:28:45.690Z,2.47
2023-01-17T15:31:16.671Z,3.72
2023-01-17T15:33:47.724Z,1.38
2023-01-17T15:36:23.937Z,2.45
2023-01-17T15:38:57.874Z,1.85
2023-01-17T15:41:25.365Z,2.15
2023-01-17T15:44:00.001Z,3.53
2023-01-17T15:46:32.338Z,3.63
2023-01-17T15:49:17.372Z,2.53
2023-01-17T15:51:47.293Z,2.47
2023-01-17T15:54:28.902Z,6.68
2023-01-17T15:57:03.093Z,8.13
2023-01-17T15:59:41.791Z,7.47
2023-01-17T16:02:26.116Z,4.10
2023-01-17T16:04:54.239Z,4.50
2023-01-17T16:07:21.976Z,8.57
2023-01-17T16:09:51.886Z,7.95
2023-01-17T16:12:18.533Z,5.32
2023-01-17T16:15:06.299Z,4.43
2023-01-17T16:17:32.740Z,2.75
2023-01-17T16:19:59.529Z,3.35
2023-01-17T16:22:27.114Z,2.83
2023-01-17T16:24:57.396Z,2.40
2023-01-17T16:27:24.157Z,1.75
2023-01-17T16:29:50.876Z,1.38
2023-01-17T16:32:17.578Z,2.47
2023-01-17T16:34:44.428Z,3.58
2023-01-17T16:37:11.176Z,3.10
2023-01-17T16:39:38.664Z,3.75
2023-01-17T16:42:05.411Z,2.72
2023-01-17T16:44:33.541Z,4.72
2023-01-17T16:47:03.967Z,2.17
2023-01-17T16:49:32.453Z,3.47
2023-01-17T16:51:59.683Z,3.33
2023-01-17T16:54:27.138Z,2.05
2023-01-17T16:56:53.897Z,5.50
2023-01-17T16:59:20.626Z,3.20
2023-01-17T17:01:49.669Z,3.17
2023-01-17T17:04:16.360Z,3.25
2023-01-17T17:06:43.425Z,6.15
2023-01-17T17:09:10.085Z,3.30
2023-01-17T17:11:37.990Z,5.50
2023-01-17T17:14:04.730Z,4.43
2023-01-17T17:16:32.896Z,4.35
2023-01-17T17:19:04.296Z,3.15
2023-01-17T17:21:31.943Z,14.95
2023-01-17T17:23:59.412Z,8.82
2023-01-17T17:26:27.476Z,6.28
2023-01-17T17:28:54.722Z,4.80
2023-01-17T17:31:21.459Z,7.80
2023-01-17T17:33:48.487Z,5.82
2023-01-17T17:36:18.340Z,7.55
2023-01-17T17:38:51.198Z,4.53
2023-01-17T17:41:23.019Z,4.10
2023-01-17T17:43:51.317Z,3.00
2023-01-17T17:46:19.279Z,3.20
2023-01-17T17:48:46.639Z,3.72
2023-01-17T17:51:39.504Z,3.47
2023-01-17T17:54:10.360Z,2.33
2023-01-17T17:56:37.453Z,3.33
2023-01-17T17:59:05.440Z,4.03
2023-01-17T18:01:32.296Z,4.10
2023-01-17T18:04:02.940Z,6.25
2023-01-17T18:06:29.823Z,3.25
2023-01-17T18:08:56.561Z,4.35
2023-01-17T18:11:24.696Z,2.55
2023-01-17T18:13:53.024Z,3.08
2023-01-17T18:16:24.544Z,3.95
2023-01-17T18:18:52.840Z,2.83
2023-01-17T18:21:25.378Z,3.50
2023-01-17T18:23:54.177Z,3.25
2023-01-17T18:26:25.075Z,3.78
2023-01-17T18:28:52.436Z,7.40
2023-01-17T18:31:19.082Z,3.85
2023-01-17T18:33:45.878Z,3.95
2023-01-17T18:36:13.129Z,6.40
2023-01-17T18:38:41.129Z,5.47
2023-01-17T18:41:14.879Z,5.80
2023-01-17T18:43:41.887Z,4.28
2023-01-17T18:46:09.571Z,5.72
2023-01-17T18:48:36.406Z,6.75
2023-01-17T18:51:07.742Z,5.68
2023-01-17T18:53:35.609Z,4.50
2023-01-17T18:56:03.183Z,5.57
2023-01-17T18:58:31.477Z,4.75
2023-01-17T19:01:08.423Z,4.32
2023-01-17T19:03:35.301Z,6.47
2023-01-17T19:06:02.352Z,3.58
2023-01-17T19:08:29.483Z,3.70
2023-01-17T19:10:56.273Z,7.38
2023-01-17T19:13:22.987Z,3.35
2023-01-17T19:15:49.677Z,4.35
2023-01-17T19:18:16.402Z,3.35
2023-01-17T19:20:43.151Z,4.68
2023-01-17T19:23:13.078Z,3.33
2023-01-17T19:25:40.119Z,4.13
2023-01-17T19:28:06.741Z,5.57
2023-01-17T19:30:34.411Z,4.45
2023-01-17T19:33:01.097Z,5.20
2023-01-17T19:35:27.868Z,5.20
2023-01-17T19:37:55.727Z,5.38
2023-01-17T19:40:22.585Z,4.35
2023-01-17T19:42:49.428Z,5.15
2023-01-17T19:45:16.387Z,9.00
2023-01-17T19:47:43.338Z,4.80
2023-01-17T19:50:12.164Z,3.72
2023-01-17T19:52:39.839Z,4.82
2023-01-17T19:55:12.524Z,4.53
2023-01-17T19:57:43.485Z,5.70
2023-01-17T20:00:16.578Z,5.57
2023-01-17T20:02:43.513Z,4.97
2023-01-17T20:05:10.262Z,8.20
2023-01-17T20:07:37.001Z,5.90
2023-01-17T20:10:03.904Z,5.88
2023-01-17T20:12:30.884Z,6.63
2023-01-17T20:14:57.567Z,7.32
2023-01-17T20:17:24.275Z,8.02
2023-01-17T20:19:50.940Z,5.78
2023-01-17T20:22:17.630Z,6.53
2023-01-17T20:24:44.336Z,6.68
2023-01-17T20:27:10.991Z,5.95
2023-01-17T20:29:40.669Z,6.05
2023-01-17T20:32:08.006Z,9.82
2023-01-17T20:34:34.659Z,6.03
2023-01-17T20:37:02.185Z,6.28
2023-01-17T20:39:28.951Z,7.20
2023-01-17T20:41:55.611Z,8.80
2023-01-17T20:44:23.005Z,4.97
2023-01-17T20:46:49.659Z,5.97
2023-01-17T20:49:18.797Z,7.07
2023-01-17T20:51:46.163Z,7.07
2023-01-17T20:54:14.763Z,9.50
2023-01-17T20:56:42.027Z,7.78
2023-01-17T20:59:11.155Z,6.32
2023-01-17T21:01:41.840Z,7.20
2023-01-17T21:04:10.149Z,9.02
2023-01-17T21:06:38.655Z,6.40
2023-01-17T21:09:07.301Z,7.30
2023-01-17T21:11:37.587Z,7.43
2023-01-17T21:14:05.954Z,7.70
2023-01-17T21:16:33.550Z,6.90
2023-01-17T21:19:00.617Z,7.43
2023-01-17T21:21:28.947Z,7.72
2023-01-17T21:23:57.619Z,12.07
2023-01-17T21:26:27.837Z,8.52
2023-01-17T21:28:54.947Z,10.25
2023-01-17T21:31:23.425Z,10.57
2023-01-17T21:34:09.920Z,11.40
2023-01-17T21:36:38.232Z,16.38
2023-01-17T21:39:12.946Z,11.70
2023-01-17T21:41:40.458Z,12.27
2023-01-17T21:44:08.686Z,13.48
2023-01-17T21:46:36.973Z,13.95
2023-01-17T21:49:03.697Z,12.35
2023-01-17T21:51:49.497Z,12.63
2023-01-17T21:54:16.266Z,10.73
2023-01-17T21:57:01.631Z,12.57
2023-01-17T21:59:30.696Z,12.02
2023-01-17T22:01:58.232Z,9.60
2023-01-17T22:04:25.729Z,10.18
2023-01-17T22:06:52.555Z,15.35
2023-01-17T22:09:19.401Z,14.70
2023-01-17T22:11:46.029Z,11.48
2023-01-17T22:14:12.796Z,11.65
2023-01-17T22:16:39.565Z,9.05
2023-01-17T22:19:06.290Z,11.30
2023-01-17T22:21:33.025Z,8.45
2023-01-17T22:23:59.942Z,9.43
2023-01-17T22:26:27.958Z,9.20
2023-01-17T22:28:55.011Z,10.48
2023-01-17T22:31:23.682Z,14.68
2023-01-17T22:33:55.093Z,10.00
2023-01-17T22:36:21.971Z,10.90
2023-01-17T22:38:48.901Z,9.80
2023-01-17T22:41:16.852Z,10.27
2023-01-17T22:43:44.740Z,12.60
2023-01-17T22:46:12.724Z,9.00
2023-01-17T22:48:42.622Z,11.73
2023-01-17T22:51:10.293Z,11.30
2023-01-17T22:54:00.120Z,10.82
2023-01-17T22:56:28.485Z,10.68
2023-01-17T22:58:55.243Z,10.50
2023-01-17T23:01:23.240Z,11.70
2023-01-17T23:03:54.476Z,13.25
2023-01-17T23:06:22.513Z,11.88
2023-01-17T23:08:50.382Z,12.45
2023-01-17T23:11:46.271Z,11.30
2023-01-17T23:14:57.760Z,10.80
2023-01-17T23:18:02.748Z,10.45
2023-01-17T23:20:29.467Z,12.07
2023-01-17T23:22:56.381Z,10.77
2023-01-17T23:25:23.313Z,10.93
2023-01-17T23:28:08.626Z,11.00
2023-01-17T23:30:36.915Z,13.90
2023-01-17T23:33:05.338Z,12.73
2023-01-17T23:35:33.189Z,12.27
2023-01-17T23:38:18.624Z,11.65
2023-01-17T23:41:08.853Z,10.85
2023-01-17T23:43:36.265Z,11.25
2023-01-17T23:46:03.904Z,11.10
2023-01-17T23:48:30.817Z,11.63
2023-01-17T23:50:58.909Z,12.57
2023-01-17T23:53:26.162Z,10.68
2023-01-17T23:55:53.729Z,12.95
2023-01-17T23:58:21.696Z,12.05
